Time;durP1;ratioP1;P1;durP2;ratioP2;P2;SDS_P1;SDS_P2;PMS_P1;PMS_P2;Temp;Humidity;BMP_temperature;BMP_pressure;BME280_temperature;BME280_humidity;BME280_pressure;Samples;Min_cycle;Max_cycle;Signal;HPM_P1;HPM_P2
2021/09/09 00:04:35;;;;;;;;;;;;;;;;;;10377750;28;19926;-74
2021/09/09 00:09:37;;;;;;;;;;;;;;;;;;10376718;28;19917;-74
2021/09/09 00:14:39;;;;;;;;;;;;;;;;;;10377133;28;20340;-74
2021/09/09 00:19:43;;;;;;;;;;;;;;;;;;10378067;28;19920;-74
2021/09/09 00:24:44;;;;;;;;;;;;;;;;;;10375367;28;19918;-74
2021/09/09 00:29:47;;;;;;;;;;;;;;;;;;10375819;28;19924;-74
2021/09/09 00:34:48;;;;;;;;;;;;;;;;;;10376694;28;20292;-74
2021/09/09 00:39:50;;;;;;;;;;;;;;;;;;10375683;28;19914;-74
2021/09/09 00:44:53;;;;;;;;;;;;;;;;;;10375513;28;20003;-74
2021/09/09 00:49:55;;;;;;;;;;;;;;;;;;10375939;28;19917;-74
2021/09/09 00:54:56;;;;;;;;;;;;;;;;;;10376372;28;20024;-74
2021/09/09 00:59:57;;;;;;;;;;;;;;;;;;10376156;28;20296;-74
2021/09/09 01:04:58;;;;;;;;;;;;;;;;;;10374997;28;19932;-74
2021/09/09 01:09:59;;;;;;;;;;;;;;;;;;10375959;28;19917;-74
2021/09/09 01:15:00;;;;;;;;;;;;;;;;;;10374977;28;19913;-74
2021/09/09 01:20:01;;;;;;;;;;;;;;;;;;10373993;28;20376;-74
2021/09/09 01:25:02;;;;;;;;;;;;;;;;;;10374584;28;19964;-74
2021/09/09 01:30:04;;;;;;;;;;;;;;;;;;10374501;28;19925;-74
2021/09/09 01:35:05;;;;;;;;;;;;;;;;;;10373841;28;19957;-74
2021/09/09 01:40:06;;;;;;;;;;;;;;;;;;10375292;28;19949;-75
2021/09/09 01:45:08;;;;;;;;;;;;;;;;;;10375517;28;19917;-74
2021/09/09 01:50:11;;;;;;;;;;;;;;;;;;10374396;28;19985;-75
2021/09/09 01:55:12;;;;;;;;;;;;;;;;;;10374381;28;19920;-74
2021/09/09 02:00:13;;;;;;;;;;;;;;;;;;10373683;28;19963;-74
2021/09/09 02:05:14;;;;;;;;;;;;;;;;;;10374039;28;19921;-74
2021/09/09 02:10:20;;;;;;;;;;;;;;;;;;10373938;28;19918;-74
2021/09/09 02:15:21;;;;;;;;;;;;;;;;;;10374112;28;19936;-74
2021/09/09 02:20:22;;;;;;;;;;;;;;;;;;10373526;28;19921;-74
2021/09/09 02:25:23;;;;;;;;;;;;;;;;;;10373987;28;19914;-74
2021/09/09 02:30:26;;;;;;;;;;;;;;;;;;10410650;28;19917;-74
2021/09/09 02:35:27;;;;;;;;;;;;;;;;;;10414310;28;20292;-74
2021/09/09 02:40:29;;;;;;;;;;;;;;;;;;10414152;28;20289;-74
2021/09/09 02:45:30;;;;;;;;;;;;;;;;;;10413350;28;20287;-74
2021/09/09 02:50:32;;;;;;;;;;;;;;;;;;10414107;28;19917;-75
2021/09/09 02:55:33;;;;;;;;;;;;;;;;;;10412937;28;19916;-75
2021/09/09 03:00:34;;;;;;;;;;;;;;;;;;10412995;28;19913;-74
2021/09/09 03:05:35;;;;;;;;;;;;;;;;;;10414036;28;20272;-74
2021/09/09 03:10:36;;;;;;;;;;;;;;;;;;10413868;28;19913;-75
2021/09/09 03:15:37;;;;;;;;;;;;;;;;;;10413684;28;19959;-74
2021/09/09 03:20:39;;;;;;;;;;;;;;;;;;10413119;28;20352;-74
2021/09/09 03:25:40;;;;;;;;;;;;;;;;;;10413757;28;19913;-74
2021/09/09 03:30:43;;;;;;;;;;;;;;;;;;10413154;28;19960;-75
2021/09/09 03:35:44;;;;;;;;;;;;;;;;;;10412516;28;19913;-75
2021/09/09 03:40:45;;;;;;;;;;;;;;;;;;10414280;28;19913;-74
2021/09/09 03:45:47;;;;;;;;;;;;;;;;;;10420274;28;19968;-74
2021/09/09 03:50:49;;;;;;;;;;;;;;;;;;10419902;28;20360;-74
2021/09/09 03:55:50;;;;;;;;;;;;;;;;;;10420278;28;19944;-74
2021/09/09 04:00:52;;;;;;;;;;;;;;;;;;10419916;28;19913;-74
2021/09/09 04:05:54;;;;;;;;;;;;;;;;;;10418157;28;19921;-74
2021/09/09 04:10:55;;;;;;;;;;;;;;;;;;10418020;28;19913;-74
2021/09/09 04:15:56;;;;;;;;;;;;;;;;;;10417516;28;19920;-75
2021/09/09 04:20:58;;;;;;;;;;;;;;;;;;10419567;28;19919;-75
2021/09/09 04:26:00;;;;;;;;;;;;;;;;;;10418742;28;19917;-74
2021/09/09 04:31:01;;;;;;;;;;;;;;;;;;10416487;28;20016;-74
2021/09/09 04:36:02;;;;;;;;;;;;;;;;;;10417962;28;19971;-74
2021/09/09 04:41:03;;;;;;;;;;;;;;;;;;10418937;28;19913;-74
2021/09/09 04:46:04;;;;;;;;;;;;;;;;;;10417660;28;20334;-75
2021/09/09 04:51:07;;;;;;;;;;;;;;;;;;10417976;28;20320;-74
2021/09/09 04:56:08;;;;;;;;;;;;;;;;;;10416066;28;19921;-74
2021/09/09 05:01:10;;;;;;;;;;;;;;;;;;10416608;28;19919;-74
2021/09/09 05:06:12;;;;;;;;;;;;;;;;;;10416688;28;19921;-74
2021/09/09 05:11:16;;;;;;;;;;;;;;;;;;10415452;28;19963;-75
2021/09/09 05:16:17;;;;;;;;;;;;;;;;;;10414783;28;19919;-75
2021/09/09 05:21:19;;;;;;;;;;;;;;;;;;10417432;28;19917;-75
2021/09/09 05:26:20;;;;;;;;;;;;;;;;;;10415602;28;19917;-75
2021/09/09 05:31:21;;;;;;;;;;;;;;;;;;10416268;28;19913;-74
2021/09/09 05:36:22;;;;;;;;;;;;;;;;;;10414662;28;20364;-75
2021/09/09 05:41:24;;;;;;;;;;;;;;;;;;10412771;28;19971;-74
2021/09/09 05:46:25;;;;;;;;;;;;;;;;;;10407343;28;19971;-74
2021/09/09 05:51:27;;;;;;;;;;;;;;;;;;10409102;28;19914;-76
2021/09/09 05:56:29;;;;;;;;;;;;;;;;;;10375258;28;19945;-74
2021/09/09 06:01:31;;;;;;;;;;;;;;;;;;10389164;28;20363;-75
2021/09/09 06:06:32;;;;;;;;;;;;;;;;;;10354269;28;19921;-76
2021/09/09 06:11:34;;;;;;;;;;;;;;;;;;10397901;28;20003;-75
2021/09/09 06:16:36;;;;;;;;;;;;;;;;;;10391250;28;19921;-75
2021/09/09 06:21:37;;;;;;;;;;;;;;;;;;10383086;28;19913;-75
2021/09/09 06:26:39;;;;;;;;;;;;;;;;;;10379094;28;19922;-74
2021/09/09 06:31:40;;;;;;;;;;;;;;;;;;10373043;28;19914;-74
2021/09/09 06:36:41;;;;;;;;;;;;;;;;;;10373088;28;19913;-75
2021/09/09 06:41:45;;;;;;;;;;;;;;;;;;10372013;28;19971;-76
2021/09/09 06:46:46;;;;;;;;;;;;;;;;;;10372369;28;20000;-75
2021/09/09 06:51:51;;;;;;;;;;;;;;;;;;10385168;28;19924;-74
2021/09/09 06:56:52;;;;;;;;;;;;;;;;;;10391334;28;19944;-74
2021/09/09 07:01:53;;;;;;;;;;;;;;;;;;10392134;28;19924;-74
2021/09/09 07:06:54;;;;;;;;;;;;;;;;;;10387465;28;20332;-75
2021/09/09 07:11:55;;;;;;;;;;;;;;;;;;10377552;28;19928;-76
2021/09/09 07:16:56;;;;;;;;;;;;;;;;;;10384118;28;19913;-73
2021/09/09 07:21:57;;;;;;;;;;;;;;;;;;10395382;28;19914;-74
2021/09/09 07:26:59;;;;;;;;;;;;;;;;;;10388993;28;19932;-74
2021/09/09 07:32:01;;;;;;;;;;;;;;;;;;10419871;28;19987;-74
2021/09/09 07:37:02;;;;;;;;;;;;;;;;;;10419124;28;19913;-76
2021/09/09 07:42:03;;;;;;;;;;;;;;;;;;10420201;28;20249;-74
2021/09/09 07:47:05;;;;;;;;;;;;;;;;;;10372063;28;20080;-76
2021/09/09 07:52:06;;;;;;;;;;;;;;;;;;10372320;28;19920;-74
2021/09/09 07:57:07;;;;;;;;;;;;;;;;;;10389359;28;20087;-75
2021/09/09 08:02:09;;;;;;;;;;;;;;;;;;10373241;28;19925;-74
2021/09/09 08:07:10;;;;;;;;;;;;;;;;;;10376714;28;20040;-73
2021/09/09 08:12:11;;;;;;;;;;;;;;;;;;10385918;28;20292;-75
2021/09/09 08:17:14;;;;;;;;;;;;;;;;;;10371976;28;19924;-74
2021/09/09 08:22:15;;;;;;;;;;;;;;;;;;10371266;28;19918;-74
2021/09/09 08:27:16;;;;;;;;;;;;;;;;;;10370147;28;20014;-72
2021/09/09 08:32:17;;;;;;;;;;;;;;;;;;10371219;28;19972;-72
2021/09/09 08:37:20;;;;;;;;;;;;;;;;;;10370814;28;19913;-74
2021/09/09 08:42:21;;;;;;;;;;;;;;;;;;10370431;28;20008;-73
2021/09/09 08:47:23;;;;;;;;;;;;;;;;;;10380978;28;19964;-72
2021/09/09 08:52:24;;;;;;;;;;;;;;;;;;10388103;28;20331;-76
2021/09/09 08:57:27;;;;;;;;;;;;;;;;;;10388888;28;19925;-76
2021/09/09 09:02:28;;;;;;;;;;;;;;;;;;10382228;28;19928;-74
2021/09/09 09:07:31;;;;;;;;;;;;;;;;;;10376866;28;19921;-71
2021/09/09 09:12:32;;;;;;;;;;;;;;;;;;10384428;28;19914;-74
2021/09/09 09:17:33;;;;;;;;;;;;;;;;;;10373313;28;19921;-74
2021/09/09 09:22:34;;;;;;;;;;;;;;;;;;10373413;28;20388;-74
2021/09/09 09:27:35;;;;;;;;;;;;;;;;;;10372885;28;19921;-73
2021/09/09 09:32:36;;;;;;;;;;;;;;;;;;10389995;28;19963;-71
2021/09/09 09:37:37;;;;;;;;;;;;;;;;;;10388544;28;19923;-73
2021/09/09 09:42:38;;;;;;;;;;;;;;;;;;10391657;28;19921;-73
2021/09/09 09:47:40;;;;;;;;;;;;;;;;;;10388792;28;19917;-73
2021/09/09 09:52:41;;;;;;;;;;;;;;;;;;10391708;28;20406;-72
2021/09/09 09:57:42;;;;;;;;;;;;;;;;;;10388580;28;19987;-70
2021/09/09 10:02:43;;;;;;;;;;;;;;;;;;10390802;28;19932;-73
2021/09/09 10:07:45;;;;;;;;;;;;;;;;;;10388312;28;19918;-74
2021/09/09 10:12:46;;;;;;;;;;;;;;;;;;10380373;28;19924;-73
2021/09/09 10:17:47;;;;;;;;;;;;;;;;;;10395821;28;19936;-73
2021/09/09 10:22:48;;;;;;;;;;;;;;;;;;10413749;28;19921;-72
2021/09/09 10:27:49;;;;;;;;;;;;;;;;;;10413354;28;20300;-73
2021/09/09 10:32:50;;;;;;;;;;;;;;;;;;10413742;28;19959;-72
2021/09/09 10:37:52;;;;;;;;;;;;;;;;;;10413149;28;19913;-75
2021/09/09 10:42:53;;;;;;;;;;;;;;;;;;10414545;28;19913;-71
2021/09/09 10:47:54;;;;;;;;;;;;;;;;;;10412721;28;20269;-71
2021/09/09 10:52:55;;;;;;;;;;;;;;;;;;10421897;28;19921;-69
2021/09/09 10:57:56;;;;;;;;;;;;;;;;;;10422279;28;19920;-73
2021/09/09 11:02:57;;;;;;;;;;;;;;;;;;10537361;22;19932;-68
2021/09/09 11:07:59;;;;;;;;;;;;;;;;;;10504212;28;19924;-70
2021/09/09 11:13:01;;;;;;;;;;;;;;;;;;10503337;28;19953;-70
2021/09/09 11:18:03;;;;;;;;;;;;;;;;;;10504378;28;19913;-71
2021/09/09 11:23:04;;;;;;;;;;;;;;;;;;10503339;28;19916;-70
2021/09/09 11:28:05;;;;;;;;;;;;;;;;;;10502265;28;19916;-71
2021/09/09 11:33:06;;;;;;;;;;;;;;;;;;10503013;28;19920;-70
2021/09/09 11:38:09;;;;;;;;;;;;;;;;;;10503116;28;19991;-69
2021/09/09 11:43:10;;;;;;;;;;;;;;;;;;10501817;28;19921;-73
2021/09/09 11:48:11;;;;;;;;;;;;;;;;;;10484182;28;19917;-72
2021/09/09 11:53:13;;;;;;;;;;;;;;;;;;10502642;28;19913;-72
2021/09/09 11:58:14;;;;;;;;;;;;;;;;;;10502149;28;19917;-71
2021/09/09 12:03:15;;;;;;;;;;;;;;;;;;10500928;28;19921;-71
2021/09/09 12:08:16;;;;;;;;;;;;;;;;;;10502208;28;19917;-71
2021/09/09 12:13:17;;;;;;;;;;;;;;;;;;10483319;28;19912;-70
2021/09/09 12:18:19;;;;;;;;;;;;;;;;;;10495867;28;20263;-70
2021/09/09 12:23:20;;;;;;;;;;;;;;;;;;10500893;28;19938;-71
2021/09/09 12:28:21;;;;;;;;;;;;;;;;;;10498637;28;20417;-69
2021/09/09 12:33:22;;;;;;;;;;;;;;;;;;10502209;28;19982;-71
2021/09/09 12:38:23;;;;;;;;;;;;;;;;;;10497387;28;19961;-72
2021/09/09 12:43:24;;;;;;;;;;;;;;;;;;10497172;28;20367;-70
2021/09/09 12:48:26;;;;;;;;;;;;;;;;;;10481095;28;19921;-71
2021/09/09 12:53:27;;;;;;;;;;;;;;;;;;10451617;28;20174;-72
2021/09/09 12:58:28;;;;;;;;;;;;;;;;;;10454465;28;19916;-71
2021/09/09 13:03:30;;;;;;;;;;;;;;;;;;10454359;28;20375;-77
2021/09/09 13:08:32;;;;;;;;;;;;;;;;;;10454383;28;19921;-73
2021/09/09 13:13:33;;;;;;;;;;;;;;;;;;10454015;28;19916;-76
2021/09/09 13:18:35;;;;;;;;;;;;;;;;;;10453171;28;19920;-76
2021/09/09 13:23:37;;;;;;;;;;;;;;;;;;10453619;28;19970;-77
2021/09/09 13:28:41;;;;;;;;;;;;;;;;;;10452375;28;19917;-71
2021/09/09 13:33:45;;;;;;;;;;;;;;;;;;10453021;28;19919;-76
2021/09/09 13:38:47;;;;;;;;;;;;;;;;;;10482419;28;19960;-72
2021/09/09 13:43:48;;;;;;;;;;;;;;;;;;10494343;28;19916;-72
2021/09/09 13:53:26;;;;;;;;;;;;;;;;;;10487685;27;1547927;-73
2021/09/09 13:58:28;;;;;;;;;;;;;;;;;;10520659;28;19937;-76
2021/09/09 14:03:29;;;;;;;;;;;;;;;;;;10526565;28;19916;-76
2021/09/09 14:08:30;;;;;;;;;;;;;;;;;;10524742;28;19959;-72
2021/09/09 14:13:33;;;;;;;;;;;;;;;;;;10524390;28;20277;-72
2021/09/09 14:18:34;;;;;;;;;;;;;;;;;;10525034;28;19916;-74
2021/09/09 14:23:36;;;;;;;;;;;;;;;;;;10526292;28;19917;-71
2021/09/09 14:28:37;;;;;;;;;;;;;;;;;;10523828;28;20007;-74
2021/09/09 14:33:38;;;;;;;;;;;;;;;;;;10529931;28;19913;-72
2021/09/09 14:38:41;;;;;;;;;;;;;;;;;;10530259;28;19912;-72
2021/09/09 14:43:42;;;;;;;;;;;;;;;;;;10530667;28;19913;-75
2021/09/09 14:48:44;;;;;;;;;;;;;;;;;;10527018;28;19978;-75
2021/09/09 14:53:45;;;;;;;;;;;;;;;;;;10529841;28;20398;-73
2021/09/09 14:58:46;;;;;;;;;;;;;;;;;;10531375;28;19912;-75
2021/09/09 15:03:47;;;;;;;;;;;;;;;;;;10507335;28;19919;-77
2021/09/09 15:08:54;;;;;;;;;;;;;;;;;;10502142;28;19917;-74
2021/09/09 15:13:55;;;;;;;;;;;;;;;;;;10501592;28;19913;-76
2021/09/09 15:18:56;;;;;;;;;;;;;;;;;;10495214;28;19916;-73
2021/09/09 15:23:57;;;;;;;;;;;;;;;;;;10496472;28;19913;-76
2021/09/09 15:29:00;;;;;;;;;;;;;;;;;;10495416;28;20441;-76
2021/09/09 15:34:03;;;;;;;;;;;;;;;;;;10495228;28;20365;-72
2021/09/09 15:39:04;;;;;;;;;;;;;;;;;;10492673;28;19913;-75
2021/09/09 15:44:06;;;;;;;;;;;;;;;;;;10468922;28;19920;-75
2021/09/09 15:50:52;;;;;;;;;;;;;;;;;;10567339;27;20440;-75
2021/09/09 15:55:54;;;;;;;;;;;;;;;;;;10485492;27;79336;-71
2021/09/09 16:07:31;;;;;;;;;;;;;;;;;;10443887;28;102312;-76
2021/09/09 16:15:59;;;;;;;;;;;;;;;;;;10568280;27;19916;-72
2021/09/09 16:21:02;;;;;;;;;;;;;;;;;;10568550;28;19928;-71
2021/09/09 16:26:05;;;;;;;;;;;;;;;;;;10519566;27;88927;-75
2021/09/09 16:31:09;;;;;;;;;;;;;;;;;;10526878;28;20575;-71
2021/09/09 16:36:11;;;;;;;;;;;;;;;;;;10524549;28;20484;-71
2021/09/09 16:41:14;;;;;;;;;;;;;;;;;;10530683;28;19939;-73
2021/09/09 16:46:17;;;;;;;;;;;;;;;;;;10527873;28;19928;-76
2021/09/09 16:51:19;;;;;;;;;;;;;;;;;;10525587;28;19979;-74
2021/09/09 16:56:26;;;;;;;;;;;;;;;;;;10528095;28;19928;-71
2021/09/09 17:01:29;;;;;;;;;;;;;;;;;;10529805;28;20471;-75
2021/09/09 17:06:32;;;;;;;;;;;;;;;;;;10531120;28;20444;-73
2021/09/09 17:11:35;;;;;;;;;;;;;;;;;;10524818;28;20393;-73
2021/09/09 17:16:38;;;;;;;;;;;;;;;;;;10456890;27;19936;-73
2021/09/09 17:21:40;;;;;;;;;;;;;;;;;;10481699;28;58965;-72
2021/09/09 17:26:43;;;;;;;;;;;;;;;;;;10502304;28;19924;-75
2021/09/09 17:31:46;;;;;;;;;;;;;;;;;;10499923;28;20444;-75
2021/09/09 17:36:48;;;;;;;;;;;;;;;;;;10500563;28;19966;-75
2021/09/09 17:41:55;;;;;;;;;;;;;;;;;;10500528;28;20387;-72
2021/09/09 17:46:57;;;;;;;;;;;;;;;;;;10498997;28;19932;-76
2021/09/09 17:52:01;;;;;;;;;;;;;;;;;;10498780;28;19924;-72
2021/09/09 17:57:04;;;;;;;;;;;;;;;;;;10500220;28;19990;-73
2021/09/09 18:02:07;;;;;;;;;;;;;;;;;;10498487;28;20445;-71
2021/09/09 18:07:09;;;;;;;;;;;;;;;;;;10499665;28;19925;-75
2021/09/09 18:12:13;;;;;;;;;;;;;;;;;;10498649;28;19967;-76
2021/09/09 18:17:17;;;;;;;;;;;;;;;;;;10498516;28;19951;-73
2021/09/09 18:22:22;;;;;;;;;;;;;;;;;;10496385;28;19978;-76
2021/09/09 18:27:24;;;;;;;;;;;;;;;;;;10497257;28;19935;-72
2021/09/09 18:32:27;;;;;;;;;;;;;;;;;;10496660;28;19931;-72
2021/09/09 18:37:29;;;;;;;;;;;;;;;;;;10497828;28;19924;-73
2021/09/09 18:42:32;;;;;;;;;;;;;;;;;;10498121;28;19935;-75
2021/09/09 18:47:34;;;;;;;;;;;;;;;;;;10497321;28;20193;-76
2021/09/09 18:52:37;;;;;;;;;;;;;;;;;;10493364;28;19928;-75
2021/09/09 18:57:41;;;;;;;;;;;;;;;;;;10494440;28;19924;-72
2021/09/09 19:02:44;;;;;;;;;;;;;;;;;;10496466;28;19931;-76
2021/09/09 19:07:47;;;;;;;;;;;;;;;;;;10490502;28;19924;-76
2021/09/09 19:12:50;;;;;;;;;;;;;;;;;;10490098;28;19986;-73
2021/09/09 19:17:53;;;;;;;;;;;;;;;;;;10492336;28;19928;-76
2021/09/09 19:22:57;;;;;;;;;;;;;;;;;;10492504;28;19924;-74
2021/09/09 19:28:00;;;;;;;;;;;;;;;;;;10492168;28;19925;-75
2021/09/09 19:33:03;;;;;;;;;;;;;;;;;;10491492;28;19924;-72
2021/09/09 19:38:05;;;;;;;;;;;;;;;;;;10492378;28;19939;-76
2021/09/09 19:43:09;;;;;;;;;;;;;;;;;;10491517;28;19928;-75
2021/09/09 19:48:12;;;;;;;;;;;;;;;;;;10489273;28;19924;-76
2021/09/09 19:53:17;;;;;;;;;;;;;;;;;;10490855;28;20466;-78
2021/09/09 19:58:23;;;;;;;;;;;;;;;;;;10490376;28;19971;-76
2021/09/09 20:03:27;;;;;;;;;;;;;;;;;;10488488;28;19951;-75
2021/09/09 20:08:36;;;;;;;;;;;;;;;;;;10489400;28;19929;-73
2021/09/09 20:13:40;;;;;;;;;;;;;;;;;;10489983;28;20718;-76
2021/09/09 20:18:44;;;;;;;;;;;;;;;;;;10490883;28;19925;-77
2021/09/09 20:23:46;;;;;;;;;;;;;;;;;;10490181;28;20379;-74
2021/09/09 20:28:49;;;;;;;;;;;;;;;;;;10489771;28;19929;-74
2021/09/09 20:33:53;;;;;;;;;;;;;;;;;;10490562;28;19968;-75
2021/09/09 20:38:56;;;;;;;;;;;;;;;;;;10490684;28;20694;-77
2021/09/09 20:43:59;;;;;;;;;;;;;;;;;;10490121;28;19928;-75
2021/09/09 20:49:02;;;;;;;;;;;;;;;;;;10487485;28;19933;-75
2021/09/09 20:54:04;;;;;;;;;;;;;;;;;;10487216;28;19931;-76
2021/09/09 20:59:07;;;;;;;;;;;;;;;;;;10491134;28;20387;-76
2021/09/09 21:04:14;;;;;;;;;;;;;;;;;;10496835;28;19928;-76
2021/09/09 21:09:16;;;;;;;;;;;;;;;;;;10495324;28;19932;-78
2021/09/09 21:14:22;;;;;;;;;;;;;;;;;;10496794;28;20011;-75
2021/09/09 21:19:24;;;;;;;;;;;;;;;;;;10496680;28;19929;-76
2021/09/09 21:24:27;;;;;;;;;;;;;;;;;;10497243;28;19932;-75
2021/09/09 21:29:30;;;;;;;;;;;;;;;;;;10502948;28;19929;-74
2021/09/09 21:34:33;;;;;;;;;;;;;;;;;;10500540;28;19924;-77
2021/09/09 21:39:39;;;;;;;;;;;;;;;;;;10499000;28;19925;-78
2021/09/09 21:44:43;;;;;;;;;;;;;;;;;;10501358;28;20015;-77
2021/09/09 21:49:46;;;;;;;;;;;;;;;;;;10501513;28;20018;-76
2021/09/09 21:54:49;;;;;;;;;;;;;;;;;;10500501;28;19931;-77
2021/09/09 21:59:51;;;;;;;;;;;;;;;;;;10501216;28;20268;-77
2021/09/09 22:04:54;;;;;;;;;;;;;;;;;;10501732;28;19929;-74
2021/09/09 22:09:57;;;;;;;;;;;;;;;;;;10500633;28;19932;-75
2021/09/09 22:15:00;;;;;;;;;;;;;;;;;;10499311;28;20359;-77
2021/09/09 22:20:04;;;;;;;;;;;;;;;;;;10500442;28;19924;-77
2021/09/09 22:25:06;;;;;;;;;;;;;;;;;;10499764;28;20311;-74
2021/09/09 22:30:17;;;;;;;;;;;;;;;;;;10501476;28;19928;-76
2021/09/09 22:35:20;;;;;;;;;;;;;;;;;;10498233;28;19932;-74
2021/09/09 22:40:22;;;;;;;;;;;;;;;;;;10500196;28;19924;-77
2021/09/09 22:45:24;;;;;;;;;;;;;;;;;;10500031;28;20392;-75
2021/09/09 22:50:27;;;;;;;;;;;;;;;;;;10500047;28;19931;-74
2021/09/09 22:55:30;;;;;;;;;;;;;;;;;;10499928;28;19932;-77
2021/09/09 23:05:42;;;;;;;;;;;;;;;;;;10252883;29;19933;-77
2021/09/09 23:10:46;;;;;;;;;;;;;;;;;;10254323;28;19927;-76
2021/09/09 23:15:48;;;;;;;;;;;;;;;;;;10254482;28;19981;-76
2021/09/09 23:20:50;;;;;;;;;;;;;;;;;;10260147;28;20382;-75
2021/09/09 23:25:53;;;;;;;;;;;;;;;;;;10210126;29;19933;-77
2021/09/09 23:30:56;;;;;;;;;;;;;;;;;;10212784;29;19934;-74
2021/09/09 23:35:59;;;;;;;;;;;;;;;;;;10213697;29;20002;-74
2021/09/09 23:41:03;;;;;;;;;;;;;;;;;;10213477;29;20416;-76
2021/09/09 23:46:05;;;;;;;;;;;;;;;;;;10215086;28;19927;-75
2021/09/09 23:51:07;;;;;;;;;;;;;;;;;;10214209;29;19926;-75
2021/09/09 23:56:10;;;;;;;;;;;;;;;;;;10213643;29;20335;-75
